Fiona — 9HA4213 — position and weather

sailwx.info

Track history (hours):
 
Tides and Currents Weather Stations Pressure Air Temp Water Temp Dewpoint Dewpoint Depression Visibility Wind Speed Wind Dir Waves Ship Positions

Fiona

Last reported at 2017-Dec-11 20:29 UTC. Time now 2017-Dec-18 11:18 UTC.
Position N 36°42' E 027°20'.

Length 108 m; draft 7.3 m.

Type: Cargo ship. MMSI: 249361000.

Date/timePositionNaut miles runAvg speedWind from/ knotsBaromVisibWave heightAir tempDewpointWater temp
2017-Dec-11 20:29N 36°42' E 027°20'39 8.7
2017-Dec-11 15:59N 37°15' E 026°54'510.5
2017-Dec-11 15:30N 37°20' E 026°51'610.5
2017-Dec-11 14:56N 37°24' E 026°47'510.4
2017-Dec-11 14:30N 37°28' E 026°44'1010.1
2017-Dec-11 13:31N 37°36' E 026°37'1 9.9
2017-Dec-11 13:25N 37°37' E 026°36'12 9.7
2017-Dec-11 12:10N 37°48' E 026°29'  
2017-Dec-07 10:10N 44°24' E 037°25'1 6.0
2017-Dec-07 10:00N 44°24' E 037°26'3 5.4
2017-Dec-07 09:24N 44°23' E 037°30'2 5.4
2017-Dec-07 08:58N 44°22' E 037°34'3 5.9
2017-Dec-07 08:26N 44°21' E 037°38'3 6.4
2017-Dec-07 08:00N 44°20' E 037°42'37 6.9
2017-Dec-07 02:42N 44°09' E 038°30'3 9.2
2017-Dec-07 02:22N 44°08' E 038°34'3 9.5
2017-Dec-07 02:00N 44°07' E 038°39'5 9.2
2017-Dec-07 01:31N 44°06' E 038°45'5 9.4
2017-Dec-07 01:01N 44°05' E 038°51'5 9.6
2017-Dec-07 00:31N 44°03' E 038°58'4 8.1
2017-Dec-07 00:00N 44°04' E 039°03'2 3.3
2017-Dec-06 23:31N 44°06' E 039°04'0 0.0
2017-Dec-06 23:00N 44°06' E 039°04'0 0.0
2017-Dec-06 22:30N 44°05' E 039°04'0 0.0
2017-Dec-06 22:00N 44°05' E 039°04'0 0.0
2017-Dec-06 21:30N 44°05' E 039°04'0 0.0
2017-Dec-06 21:00N 44°05' E 039°04'  
Track history (hours):
 
Tides and Currents Weather Stations Pressure Air Temp Water Temp Dewpoint Dewpoint Depression Visibility Wind Speed Wind Dir Waves Ship Positions

Fiona

Last reported at 2017-Dec-11 20:29 UTC. Time now 2017-Dec-18 11:18 UTC.
Position N 36°42' E 027°20'.

Length 108 m; draft 7.3 m.

Type: Cargo ship. MMSI: 249361000.

Date/timePositionNaut miles runAvg speedWind from/ knotsBaromVisibWave heightAir tempDewpointWater temp
2017-Dec-11 20:29N 36°42' E 027°20'39 8.7
2017-Dec-11 15:59N 37°15' E 026°54'510.5
2017-Dec-11 15:30N 37°20' E 026°51'610.5
2017-Dec-11 14:56N 37°24' E 026°47'510.4
2017-Dec-11 14:30N 37°28' E 026°44'1010.1
2017-Dec-11 13:31N 37°36' E 026°37'1 9.9
2017-Dec-11 13:25N 37°37' E 026°36'12 9.7
2017-Dec-11 12:10N 37°48' E 026°29'  
2017-Dec-07 10:10N 44°24' E 037°25'1 6.0
2017-Dec-07 10:00N 44°24' E 037°26'3 5.4
2017-Dec-07 09:24N 44°23' E 037°30'2 5.4
2017-Dec-07 08:58N 44°22' E 037°34'3 5.9
2017-Dec-07 08:26N 44°21' E 037°38'3 6.4
2017-Dec-07 08:00N 44°20' E 037°42'37 6.9
2017-Dec-07 02:42N 44°09' E 038°30'3 9.2
2017-Dec-07 02:22N 44°08' E 038°34'3 9.5
2017-Dec-07 02:00N 44°07' E 038°39'5 9.2
2017-Dec-07 01:31N 44°06' E 038°45'5 9.4
2017-Dec-07 01:01N 44°05' E 038°51'5 9.6
2017-Dec-07 00:31N 44°03' E 038°58'4 8.1
2017-Dec-07 00:00N 44°04' E 039°03'2 3.3
2017-Dec-06 23:31N 44°06' E 039°04'0 0.0
2017-Dec-06 23:00N 44°06' E 039°04'0 0.0
2017-Dec-06 22:30N 44°05' E 039°04'0 0.0
2017-Dec-06 22:00N 44°05' E 039°04'0 0.0
2017-Dec-06 21:30N 44°05' E 039°04'0 0.0
2017-Dec-06 21:00N 44°05' E 039°04'  

Dump ship's entire track history